createdAt,value
2022-12-18T00:01:26.001Z,4.95
2022-12-18T00:03:54.581Z,4.65
2022-12-18T00:06:22.918Z,4.43
2022-12-18T00:08:50.578Z,5.43
2022-12-18T00:11:20.241Z,6.07
2022-12-18T00:13:48.778Z,6.88
2022-12-18T00:16:21.271Z,5.90
2022-12-18T00:18:49.807Z,8.20
2022-12-18T00:21:17.752Z,5.10
2022-12-18T00:23:46.245Z,5.50
2022-12-18T00:26:16.424Z,6.60
2022-12-18T00:28:44.279Z,6.00
2022-12-18T00:31:13.668Z,7.65
2022-12-18T00:33:42.962Z,6.35
2022-12-18T00:36:13.409Z,9.02
2022-12-18T00:38:41.790Z,7.05
2022-12-18T00:41:10.159Z,6.40
2022-12-18T00:43:37.539Z,7.90
2022-12-18T00:46:05.816Z,5.78
2022-12-18T00:48:33.743Z,5.82
2022-12-18T00:51:02.647Z,6.47
2022-12-18T00:53:30.085Z,7.13
2022-12-18T00:55:57.537Z,5.13
2022-12-18T00:58:25.027Z,6.40
2022-12-18T01:00:52.566Z,7.03
2022-12-18T01:03:20.063Z,4.72
2022-12-18T01:05:47.613Z,8.00
2022-12-18T01:08:16.404Z,5.97
2022-12-18T01:10:43.854Z,7.72
2022-12-18T01:13:11.320Z,5.93
2022-12-18T01:15:38.802Z,5.68
2022-12-18T01:18:07.316Z,5.88
2022-12-18T01:20:34.910Z,8.93
2022-12-18T01:23:02.356Z,6.55
2022-12-18T01:25:31.138Z,7.53
2022-12-18T01:27:58.611Z,6.80
2022-12-18T01:30:26.051Z,7.20
2022-12-18T01:32:53.521Z,5.43
2022-12-18T01:35:21.235Z,4.93
2022-12-18T01:37:48.694Z,6.10
2022-12-18T01:40:16.111Z,5.65
2022-12-18T01:42:44.915Z,7.32
2022-12-18T01:45:29.362Z,8.20
2022-12-18T01:47:59.698Z,9.52
2022-12-18T01:50:32.684Z,7.43
2022-12-18T01:53:04.020Z,8.52
2022-12-18T01:55:37.417Z,6.40
2022-12-18T01:58:06.791Z,9.35
2022-12-18T02:00:34.245Z,6.70
2022-12-18T02:03:01.923Z,6.55
2022-12-18T02:05:41.935Z,5.95
2022-12-18T02:08:14.080Z,7.32
2022-12-18T02:10:48.755Z,5.45
2022-12-18T02:13:22.648Z,7.32
2022-12-18T02:15:59.163Z,7.57
2022-12-18T02:18:31.663Z,7.53
2022-12-18T02:21:10.024Z,5.93
2022-12-18T02:23:49.888Z,5.38
2022-12-18T02:26:22.123Z,5.72
2022-12-18T02:28:54.539Z,9.23
2022-12-18T02:31:26.527Z,6.22
2022-12-18T02:34:00.589Z,9.38
2022-12-18T02:36:30.259Z,5.97
2022-12-18T02:39:00.129Z,6.85
2022-12-18T02:41:30.435Z,6.13
2022-12-18T02:43:59.611Z,6.47
2022-12-18T02:46:31.945Z,5.50
2022-12-18T02:49:07.571Z,6.40
2022-12-18T02:51:46.813Z,6.32
2022-12-18T02:54:23.409Z,7.57
2022-12-18T02:56:56.208Z,6.45
2022-12-18T02:59:31.439Z,7.82
2022-12-18T03:02:05.200Z,5.78
2022-12-18T03:04:39.962Z,8.48
2022-12-18T03:07:12.436Z,4.80
2022-12-18T03:09:45.464Z,6.20
2022-12-18T03:12:24.680Z,7.20
2022-12-18T03:14:56.995Z,7.28
2022-12-18T03:17:27.256Z,9.77
2022-12-18T03:19:57.783Z,5.80
2022-12-18T03:22:29.036Z,7.15
2022-12-18T03:24:59.073Z,6.28
2022-12-18T03:27:30.989Z,6.00
2022-12-18T03:30:08.285Z,6.47
2022-12-18T03:32:41.461Z,5.60
2022-12-18T03:35:18.922Z,8.88
2022-12-18T03:37:46.527Z,8.10
2022-12-18T03:40:14.166Z,7.45
2022-12-18T03:42:49.392Z,6.65
2022-12-18T03:45:24.144Z,5.60
2022-12-18T03:48:01.140Z,7.85
2022-12-18T03:50:36.032Z,5.97
2022-12-18T03:53:14.862Z,5.78
2022-12-18T03:55:44.060Z,5.93
2022-12-18T03:58:17.440Z,5.15
2022-12-18T04:00:45.863Z,3.95
2022-12-18T04:03:15.636Z,5.43
2022-12-18T04:05:45.529Z,4.75
2022-12-18T04:08:13.946Z,6.55
2022-12-18T04:10:41.451Z,4.53
2022-12-18T04:13:09.387Z,4.47
2022-12-18T04:15:39.707Z,3.88
2022-12-18T04:18:07.198Z,5.80
2022-12-18T04:20:34.648Z,4.13
2022-12-18T04:23:02.101Z,3.58
2022-12-18T04:25:29.561Z,5.18
2022-12-18T04:27:57.001Z,3.88
2022-12-18T04:30:24.426Z,6.72
2022-12-18T04:32:53.183Z,3.78
2022-12-18T04:35:20.658Z,5.03
2022-12-18T04:37:48.127Z,3.50
2022-12-18T04:40:15.678Z,3.50
2022-12-18T04:42:43.178Z,4.25
2022-12-18T04:45:11.290Z,4.60
2022-12-18T04:47:38.761Z,4.68
2022-12-18T04:50:08.617Z,4.88
2022-12-18T04:52:36.128Z,5.47
2022-12-18T04:55:04.106Z,3.50
2022-12-18T04:57:31.649Z,5.20
2022-12-18T04:59:59.108Z,5.03
2022-12-18T05:02:26.688Z,4.25
2022-12-18T05:04:54.195Z,4.18
2022-12-18T05:07:22.971Z,4.13
2022-12-18T05:09:50.408Z,5.82
2022-12-18T05:12:17.915Z,4.40
2022-12-18T05:14:45.340Z,4.97
2022-12-18T05:17:13.172Z,5.60
2022-12-18T05:19:40.660Z,5.45
2022-12-18T05:22:08.132Z,4.85
2022-12-18T05:24:37.194Z,4.70
2022-12-18T05:27:05.134Z,4.72
2022-12-18T05:29:32.653Z,3.75
2022-12-18T05:32:00.112Z,4.03
2022-12-18T05:34:27.534Z,4.15
2022-12-18T05:36:54.967Z,4.47
2022-12-18T05:39:22.417Z,5.45
2022-12-18T05:41:51.213Z,5.47
2022-12-18T05:44:18.835Z,3.60
2022-12-18T05:46:46.414Z,5.10
2022-12-18T05:49:13.913Z,3.88
2022-12-18T05:51:41.369Z,4.82
2022-12-18T05:54:09.484Z,3.55
2022-12-18T05:56:37.784Z,4.65
2022-12-18T05:59:06.591Z,6.50
2022-12-18T06:01:34.071Z,4.13
2022-12-18T06:04:01.602Z,3.83
2022-12-18T06:06:30.696Z,3.30
2022-12-18T06:08:59.520Z,5.07
2022-12-18T06:11:28.272Z,5.85
2022-12-18T06:13:59.065Z,4.68
2022-12-18T06:16:29.180Z,3.55
2022-12-18T06:18:58.425Z,4.82
2022-12-18T06:21:25.905Z,5.40
2022-12-18T06:23:53.494Z,6.55
2022-12-18T06:26:26.174Z,4.20
2022-12-18T06:28:55.505Z,4.95
2022-12-18T06:31:23.061Z,5.88
2022-12-18T06:33:51.951Z,7.10
2022-12-18T06:36:20.561Z,6.57
2022-12-18T06:38:48.047Z,4.80
2022-12-18T06:41:18.187Z,7.30
2022-12-18T06:43:46.556Z,5.93
2022-12-18T06:46:14.561Z,8.00
2022-12-18T06:48:42.430Z,5.95
2022-12-18T06:51:11.237Z,4.43
2022-12-18T06:53:38.956Z,5.85
2022-12-18T06:56:10.673Z,7.40
2022-12-18T06:58:38.656Z,9.48
2022-12-18T07:01:08.440Z,4.05
2022-12-18T07:03:36.176Z,6.65
2022-12-18T07:06:04.244Z,8.02
2022-12-18T07:08:33.998Z,7.05
2022-12-18T07:11:04.809Z,5.95
2022-12-18T07:13:32.426Z,6.15
2022-12-18T07:16:08.611Z,6.95
2022-12-18T07:18:40.456Z,5.35
2022-12-18T07:21:09.732Z,3.88
2022-12-18T07:23:39.117Z,6.25
2022-12-18T07:26:08.745Z,6.72
2022-12-18T07:28:37.391Z,5.80
2022-12-18T07:31:05.711Z,4.80
2022-12-18T07:33:35.478Z,4.65
2022-12-18T07:36:04.156Z,5.07
2022-12-18T07:38:31.871Z,5.93
2022-12-18T07:41:04.147Z,4.45
2022-12-18T07:43:34.783Z,4.55
2022-12-18T07:46:02.857Z,5.97
2022-12-18T07:48:30.588Z,6.18
2022-12-18T07:51:00.398Z,5.20
2022-12-18T07:53:28.123Z,6.93
2022-12-18T07:56:25.515Z,4.60
2022-12-18T07:58:49.172Z,7.15
2022-12-18T08:01:16.801Z,6.68
2022-12-18T08:03:44.882Z,5.20
2022-12-18T08:06:12.464Z,6.28
2022-12-18T08:08:41.514Z,10.25
2022-12-18T08:11:08.989Z,7.90
2022-12-18T08:13:36.683Z,4.82
2022-12-18T08:16:08.212Z,6.38
2022-12-18T08:18:36.688Z,4.65
2022-12-18T08:21:10.453Z,4.40
2022-12-18T08:23:42.716Z,6.25
2022-12-18T08:26:11.018Z,6.82
2022-12-18T08:28:38.585Z,6.13
2022-12-18T08:31:08.299Z,6.55
2022-12-18T08:33:37.083Z,6.32
2022-12-18T08:36:05.897Z,5.80
2022-12-18T08:38:33.635Z,4.82
2022-12-18T08:41:01.989Z,5.90
2022-12-18T08:43:47.086Z,5.63
2022-12-18T08:46:16.553Z,7.00
2022-12-18T08:48:44.539Z,3.28
2022-12-18T08:51:12.226Z,6.97
2022-12-18T08:53:40.272Z,4.57
2022-12-18T08:56:09.353Z,3.95
2022-12-18T08:58:36.795Z,7.35
2022-12-18T09:01:06.215Z,6.90
2022-12-18T09:03:35.436Z,4.72
2022-12-18T09:06:03.407Z,54.70
2022-12-18T09:08:30.999Z,5.60
2022-12-18T09:10:58.508Z,5.32
2022-12-18T09:13:25.977Z,4.75
2022-12-18T09:15:56.116Z,4.32
2022-12-18T09:18:24.831Z,6.50
2022-12-18T09:20:53.962Z,9.35
2022-12-18T09:23:22.021Z,4.40
2022-12-18T09:25:49.547Z,4.20
2022-12-18T09:28:19.357Z,5.07
2022-12-18T09:30:50.505Z,4.03
2022-12-18T09:33:18.481Z,5.28
2022-12-18T09:35:47.335Z,6.93
2022-12-18T09:38:18.888Z,3.70
2022-12-18T09:40:49.819Z,6.45
2022-12-18T09:43:20.740Z,5.28
2022-12-18T09:45:51.579Z,7.40
2022-12-18T09:48:24.392Z,4.47
2022-12-18T09:50:53.393Z,4.25
2022-12-18T09:53:27.101Z,4.32
2022-12-18T09:55:55.299Z,6.32
2022-12-18T09:58:28.512Z,6.13
2022-12-18T10:00:56.328Z,4.40
2022-12-18T10:03:24.428Z,5.57
2022-12-18T10:06:03.869Z,4.22
2022-12-18T10:08:43.954Z,4.30
2022-12-18T10:11:33.051Z,4.13
2022-12-18T10:14:08.978Z,5.30
2022-12-18T10:16:44.089Z,7.65
2022-12-18T10:19:27.055Z,4.15
2022-12-18T10:22:05.286Z,4.97
2022-12-18T10:24:39.652Z,6.45
2022-12-18T10:27:15.736Z,4.22
2022-12-18T10:29:44.550Z,5.35
2022-12-18T10:32:17.837Z,4.25
2022-12-18T10:34:48.887Z,4.28
2022-12-18T10:37:20.201Z,7.13
2022-12-18T10:40:09.235Z,5.07
2022-12-18T10:42:36.763Z,5.05
2022-12-18T10:45:14.453Z,4.13
2022-12-18T10:47:45.327Z,4.47
2022-12-18T10:50:26.094Z,6.38
2022-12-18T10:52:58.430Z,4.95
2022-12-18T10:55:33.175Z,3.63
2022-12-18T10:58:22.226Z,4.97
2022-12-18T11:01:05.871Z,7.32
2022-12-18T11:03:37.391Z,5.82
2022-12-18T11:06:07.878Z,6.53
2022-12-18T11:08:35.660Z,5.45
2022-12-18T11:11:06.044Z,6.15
2022-12-18T11:13:33.637Z,5.13
2022-12-18T11:16:01.446Z,6.03
2022-12-18T11:18:31.652Z,6.15
2022-12-18T11:21:02.089Z,6.25
2022-12-18T11:23:29.866Z,4.43
2022-12-18T11:25:59.868Z,5.82
2022-12-18T11:28:37.840Z,7.00
2022-12-18T11:31:28.334Z,5.97
2022-12-18T11:36:50.095Z,10.25
2022-12-18T11:39:22.499Z,7.38
2022-12-18T11:42:13.325Z,6.38
2022-12-18T11:44:48.656Z,8.15
2022-12-18T11:47:26.500Z,6.18
2022-12-18T11:49:57.832Z,6.18
2022-12-18T11:52:29.978Z,6.20
2022-12-18T11:55:02.608Z,8.15
2022-12-18T11:57:39.827Z,7.68
2022-12-18T12:00:16.794Z,7.68
2022-12-18T12:03:10.565Z,4.93
2022-12-18T12:05:50.895Z,6.45
2022-12-18T12:08:28.991Z,8.82
2022-12-18T12:11:06.632Z,6.32
2022-12-18T12:13:44.014Z,4.93
2022-12-18T12:16:20.049Z,4.95
2022-12-18T12:19:03.457Z,5.72
2022-12-18T12:21:40.547Z,4.60
2022-12-18T12:24:25.316Z,5.88
2022-12-18T12:27:02.310Z,5.75
2022-12-18T12:29:44.521Z,5.63
2022-12-18T12:32:29.521Z,5.88
2022-12-18T12:35:11.139Z,7.00
2022-12-18T12:37:50.470Z,6.35
2022-12-18T12:40:51.362Z,5.88
2022-12-18T12:43:23.204Z,6.32
2022-12-18T12:45:54.752Z,6.18
2022-12-18T12:48:35.093Z,6.35
2022-12-18T12:51:06.051Z,6.75
2022-12-18T12:53:40.168Z,5.97
2022-12-18T12:56:12.009Z,5.63
2022-12-18T12:58:50.475Z,6.75
2022-12-18T13:01:27.322Z,6.35
2022-12-18T13:04:05.129Z,8.32
2022-12-18T13:06:44.649Z,7.35
2022-12-18T13:09:12.607Z,7.07
2022-12-18T13:12:00.630Z,9.52
2022-12-18T13:14:34.532Z,6.53
2022-12-18T13:17:28.400Z,6.30
2022-12-18T13:20:08.304Z,8.30
2022-12-18T13:22:39.036Z,8.80
2022-12-18T13:25:38.287Z,11.05
2022-12-18T13:28:12.342Z,10.82
2022-12-18T13:30:56.948Z,13.93
2022-12-18T13:36:38.232Z,14.52
2022-12-18T13:39:28.924Z,10.77
2022-12-18T13:43:00.532Z,12.25
2022-12-18T13:45:42.424Z,9.77
2022-12-18T13:48:22.497Z,12.50
2022-12-18T13:51:01.438Z,18.52
2022-12-18T13:53:35.065Z,11.27
2022-12-18T13:56:03.852Z,10.95
2022-12-18T13:58:31.431Z,11.77
2022-12-18T14:01:00.161Z,12.13
2022-12-18T14:03:30.572Z,12.40
2022-12-18T14:06:03.066Z,16.80
2022-12-18T14:08:39.578Z,13.30
2022-12-18T14:11:08.610Z,9.80
2022-12-18T14:13:43.154Z,12.75
2022-12-18T14:16:15.918Z,14.27
2022-12-18T14:18:47.093Z,13.30
2022-12-18T14:21:24.731Z,13.23
2022-12-18T14:24:14.043Z,12.88
2022-12-18T14:26:42.281Z,10.65
2022-12-18T14:29:25.478Z,13.38
2022-12-18T14:32:18.310Z,16.67
2022-12-18T14:34:47.498Z,14.20
2022-12-18T14:37:16.436Z,10.93
2022-12-18T14:39:57.484Z,14.00
2022-12-18T14:42:28.730Z,14.25
2022-12-18T14:45:29.920Z,14.18
2022-12-18T14:47:57.461Z,13.48
2022-12-18T14:50:25.336Z,16.08
2022-12-18T14:52:53.111Z,11.98
2022-12-18T14:55:23.272Z,13.07
2022-12-18T14:57:53.158Z,14.95
2022-12-18T15:00:23.022Z,13.23
2022-12-18T15:02:54.812Z,17.38
2022-12-18T15:05:28.341Z,15.75
2022-12-18T15:07:57.611Z,16.15
2022-12-18T15:10:28.358Z,13.15
2022-12-18T15:13:10.080Z,19.85
2022-12-18T15:15:48.667Z,15.25
2022-12-18T15:18:18.858Z,14.95
2022-12-18T15:20:49.182Z,14.10
2022-12-18T15:23:19.472Z,21.77
2022-12-18T15:25:49.902Z,15.32
2022-12-18T15:28:25.118Z,13.88
2022-12-18T15:31:05.012Z,13.70
2022-12-18T15:33:34.750Z,18.08
2022-12-18T15:36:04.733Z,18.70
2022-12-18T15:38:32.626Z,16.50
2022-12-18T15:41:01.700Z,15.98
2022-12-18T15:43:35.599Z,16.73
2022-12-18T15:46:05.139Z,19.38
2022-12-18T15:48:34.553Z,21.63
2022-12-18T15:51:02.356Z,15.15
2022-12-18T15:53:32.994Z,21.48
2022-12-18T15:56:19.131Z,17.25
2022-12-18T15:58:46.547Z,20.65
2022-12-18T16:01:27.886Z,21.92
2022-12-18T16:03:55.638Z,25.10
2022-12-18T16:06:23.782Z,20.85
2022-12-18T16:08:51.563Z,26.45
2022-12-18T16:11:38.794Z,24.85
2022-12-18T16:14:08.547Z,17.80
2022-12-18T16:16:35.995Z,20.45
2022-12-18T16:19:03.445Z,19.80
2022-12-18T16:21:34.081Z,18.23
2022-12-18T16:24:01.752Z,21.73
2022-12-18T16:26:30.572Z,18.25
2022-12-18T16:28:57.991Z,20.38
2022-12-18T16:31:25.457Z,20.95
2022-12-18T16:34:14.744Z,23.75
2022-12-18T16:36:42.190Z,22.35
2022-12-18T16:39:09.623Z,19.77
2022-12-18T16:41:38.420Z,23.65
2022-12-18T16:44:05.967Z,20.42
2022-12-18T16:46:33.515Z,19.17
2022-12-18T16:49:01.597Z,28.65
2022-12-18T16:51:29.668Z,22.45
2022-12-18T16:53:57.825Z,20.77
2022-12-18T16:56:25.788Z,21.85
2022-12-18T16:58:56.567Z,21.35
2022-12-18T17:01:24.758Z,25.73
2022-12-18T17:03:56.110Z,26.33
2022-12-18T17:06:24.298Z,29.17
2022-12-18T17:08:56.380Z,23.60
2022-12-18T17:11:24.857Z,22.65
2022-12-18T17:13:54.723Z,24.08
2022-12-18T17:16:23.071Z,24.20
2022-12-18T17:18:50.958Z,25.88
2022-12-18T17:21:18.459Z,24.15
2022-12-18T17:23:46.001Z,25.45
2022-12-18T17:26:14.541Z,22.73
2022-12-18T17:28:42.985Z,20.13
2022-12-18T17:31:17.671Z,26.50
2022-12-18T17:33:45.450Z,25.40
2022-12-18T17:36:13.050Z,23.90
2022-12-18T17:38:40.988Z,26.58
2022-12-18T17:41:11.191Z,19.85
2022-12-18T17:43:45.612Z,21.73
2022-12-18T17:46:16.001Z,22.73
2022-12-18T17:48:43.451Z,29.25
2022-12-18T17:51:45.442Z,27.90
2022-12-18T17:54:12.980Z,25.15
2022-12-18T17:56:40.603Z,32.00
2022-12-18T17:59:08.772Z,27.17
2022-12-18T18:01:44.026Z,22.75
2022-12-18T18:04:12.762Z,26.27
2022-12-18T18:06:40.329Z,27.05
2022-12-18T18:09:08.230Z,31.42
2022-12-18T18:12:02.282Z,30.83
2022-12-18T18:14:29.953Z,23.50
2022-12-18T18:17:04.085Z,30.52
2022-12-18T18:19:33.296Z,26.23
2022-12-18T18:22:01.366Z,23.67
2022-12-18T18:24:29.578Z,25.70
2022-12-18T18:26:59.347Z,31.15
2022-12-18T18:29:30.158Z,25.95
2022-12-18T18:32:00.108Z,30.75
2022-12-18T18:34:30.179Z,31.00
2022-12-18T18:37:01.088Z,31.80
2022-12-18T18:39:28.859Z,32.40
2022-12-18T18:41:56.396Z,31.08
2022-12-18T18:44:25.969Z,25.05
2022-12-18T18:46:55.005Z,33.78
2022-12-18T18:49:26.939Z,27.25
2022-12-18T18:51:55.312Z,31.48
2022-12-18T18:54:22.752Z,30.95
2022-12-18T18:59:38.037Z,24.33
2022-12-18T19:02:05.859Z,29.92
2022-12-18T19:04:36.371Z,29.50
2022-12-18T19:07:05.976Z,33.60
2022-12-18T19:09:33.531Z,32.40
2022-12-18T19:12:19.012Z,29.25
2022-12-18T19:14:46.634Z,28.23
2022-12-18T19:17:14.076Z,30.75
2022-12-18T19:19:43.069Z,27.45
2022-12-18T19:22:10.916Z,29.55
2022-12-18T19:24:38.635Z,26.90
2022-12-18T19:27:06.113Z,28.10
2022-12-18T19:29:33.603Z,27.92
2022-12-18T19:32:01.388Z,25.70
2022-12-18T19:34:28.874Z,30.10
2022-12-18T19:37:00.122Z,35.58
2022-12-18T19:39:28.144Z,34.97
2022-12-18T19:41:55.631Z,35.80
2022-12-18T19:44:23.081Z,30.15
2022-12-18T19:46:51.676Z,33.50
2022-12-18T19:49:22.829Z,28.25
2022-12-18T19:51:50.720Z,30.65
2022-12-18T19:54:19.654Z,29.90
2022-12-18T19:56:47.473Z,33.00
2022-12-18T19:59:16.432Z,26.73
2022-12-18T20:01:43.995Z,26.85
2022-12-18T20:04:11.612Z,30.30
2022-12-18T20:06:48.264Z,32.67
2022-12-18T20:09:16.306Z,29.65
2022-12-18T20:11:45.400Z,28.17
2022-12-18T20:14:19.647Z,29.35
2022-12-18T20:16:51.908Z,30.80
2022-12-18T20:19:20.275Z,31.38
2022-12-18T20:21:48.280Z,27.40
2022-12-18T20:24:15.796Z,31.90
2022-12-18T20:26:44.665Z,27.88
2022-12-18T20:29:12.214Z,27.85
2022-12-18T20:31:39.744Z,30.17
2022-12-18T20:34:07.246Z,32.33
2022-12-18T20:36:36.375Z,29.60
2022-12-18T20:39:07.560Z,25.15
2022-12-18T20:41:37.994Z,32.17
2022-12-18T20:44:21.441Z,26.40
2022-12-18T20:46:50.327Z,34.70
2022-12-18T20:49:17.980Z,25.73
2022-12-18T20:51:45.423Z,29.98
2022-12-18T20:54:12.864Z,34.75
2022-12-18T20:56:40.296Z,33.28
2022-12-18T20:59:10.532Z,30.95
2022-12-18T21:01:38.805Z,28.20
2022-12-18T21:04:08.967Z,27.63
2022-12-18T21:06:36.943Z,28.70
2022-12-18T21:09:12.551Z,30.23
2022-12-18T21:11:57.531Z,28.05
2022-12-18T21:14:28.336Z,32.03
2022-12-18T21:16:56.736Z,31.02
2022-12-18T21:19:27.092Z,29.65
2022-12-18T21:21:55.944Z,31.05
2022-12-18T21:24:24.124Z,37.47
2022-12-18T21:26:52.478Z,31.20
2022-12-18T21:29:22.079Z,26.95
2022-12-18T21:31:52.363Z,28.48
2022-12-18T21:34:22.858Z,29.08
2022-12-18T21:36:50.807Z,44.40
2022-12-18T21:39:18.847Z,30.05
2022-12-18T21:42:18.278Z,26.38
2022-12-18T21:44:48.710Z,21.77
2022-12-18T21:47:22.586Z,28.88
2022-12-18T21:49:50.972Z,29.17
2022-12-18T21:52:18.444Z,30.52
2022-12-18T21:54:45.873Z,29.50
2022-12-18T21:57:13.983Z,29.50
2022-12-18T21:59:43.277Z,27.65
2022-12-18T22:02:14.026Z,29.83
2022-12-18T22:04:43.299Z,30.00
2022-12-18T22:07:11.637Z,29.42
2022-12-18T22:09:39.465Z,27.50
2022-12-18T22:12:08.853Z,32.40
2022-12-18T22:14:36.358Z,28.95
2022-12-18T22:17:03.985Z,32.03
2022-12-18T22:19:31.456Z,28.50
2022-12-18T22:22:00.279Z,28.38
2022-12-18T22:24:29.089Z,24.73
2022-12-18T22:27:02.160Z,28.42
2022-12-18T22:29:47.911Z,28.15
2022-12-18T22:32:18.934Z,32.40
2022-12-18T22:35:03.246Z,31.63
2022-12-18T22:37:35.008Z,33.65
2022-12-18T22:40:03.262Z,30.83
2022-12-18T22:42:32.437Z,30.52
2022-12-18T22:45:00.217Z,33.78
2022-12-18T22:47:30.209Z,30.77
2022-12-18T22:49:58.213Z,34.70
2022-12-18T22:52:25.880Z,33.45
2022-12-18T22:54:55.040Z,32.05
2022-12-18T22:57:23.302Z,29.65
2022-12-18T22:59:51.223Z,34.42
2022-12-18T23:02:19.398Z,26.48
2022-12-18T23:04:47.428Z,34.90
2022-12-18T23:07:14.912Z,33.85
2022-12-18T23:09:42.415Z,25.83
2022-12-18T23:12:15.988Z,29.95
2022-12-18T23:14:43.743Z,26.58
2022-12-18T23:17:11.260Z,34.58
2022-12-18T23:19:41.653Z,31.55
2022-12-18T23:22:11.928Z,28.23
2022-12-18T23:24:39.577Z,29.77
2022-12-18T23:27:11.368Z,32.72
2022-12-18T23:29:41.168Z,28.67
2022-12-18T23:32:09.009Z,27.88
2022-12-18T23:34:36.529Z,26.80
2022-12-18T23:37:04.107Z,27.40
2022-12-18T23:39:31.596Z,29.55
2022-12-18T23:41:59.446Z,32.35
2022-12-18T23:44:27.399Z,30.88
2022-12-18T23:46:56.407Z,36.13
2022-12-18T23:49:24.343Z,31.30
2022-12-18T23:51:51.862Z,28.15
2022-12-18T23:54:23.220Z,32.08
2022-12-18T23:57:01.016Z,31.90
2022-12-18T23:59:28.478Z,32.65
